Ashaway, Rhode Island
Current Conditions -  °F | °C
As of 10:53 PM on Wednesday 28 Jan 2015 (Local Time) from KWST Reporting Station
Clear Clear  
Wind Chill:   Ceiling: Unl
Heat Index: 15°   Visibility: 10mi
Dew Point:   Wind: 6mph
Humidity: 54%   Direction: 360°N
Pressure: 30.23"   Gusts: NA
Location:  41.43°N, 71.79°W
Report Text: KWST 290353Z AUTO 36005KT 10SM CLR M09/M17 A3023 RMK AO2 SLP236 T10941172
Loading
Personal Weather Stations






























Interactive Weather Map New forecast layout! Learn more

10-Day Weather Forecast

Advertisements
Track Severe Weather on mobile